Terminal Aerodrome Forecast
Issued by NWS

Home | Current Version | Previous Version | Text Only | Print | Product List | Glossary Off
Versions: 1 2 3 4 5 6 7 8 9 10 11 12 13 14 15 16 17 18

000
FTUS43 KGRB 252140 AAA
TAFATW
TAF AMD
KATW 252140Z 2522/2618 19012G18KT P6SM VCSH SCT020 BKN050
      TEMPO 2522/2524 BKN020
     FM260300 26012KT P6SM SCT025 BKN140
     FM260800 26012G17KT P6SM SCT025 BKN200
     FM261500 26014G22KT P6SM VCSH BKN035 OVC050=

USA.gov is the U.S. government's official web portal to all federal, state and local government web resources and services.